Time;durP1;ratioP1;P1;durP2;ratioP2;P2;SDS_P1;SDS_P2;PMS_P1;PMS_P2;Temp;Humidity;BMP_temperature;BMP_pressure;BME280_temperature;BME280_humidity;BME280_pressure;Samples;Min_cycle;Max_cycle;Signal;HPM_P1;HPM_P2
2021/06/22 00:00:59;;;;;;;4.30;2.65;;;21.90;93.40;;;;;;4992277;28;20128;-77
2021/06/22 00:03:25;;;;;;;3.25;2.28;;;22.00;93.30;;;;;;5006738;28;20516;-74
2021/06/22 00:05:50;;;;;;;3.95;2.50;;;22.00;93.30;;;;;;4992712;28;20030;-77
2021/06/22 00:08:16;;;;;;;4.63;2.35;;;21.90;93.30;;;;;;4992560;28;20398;-77
2021/06/22 00:10:41;;;;;;;3.10;2.28;;;21.90;93.30;;;;;;4992130;28;20042;-78
2021/06/22 00:13:07;;;;;;;4.03;2.50;;;21.90;93.30;;;;;;4991980;28;20023;-78
2021/06/22 00:15:33;;;;;;;3.63;2.30;;;21.90;93.30;;;;;;4991967;28;20034;-78
2021/06/22 00:17:59;;;;;;;4.10;2.35;;;21.90;93.40;;;;;;4992014;28;20030;-74
2021/06/22 00:20:25;;;;;;;3.83;2.72;;;21.90;93.60;;;;;;4990234;28;20376;-77
2021/06/22 00:22:53;;;;;;;5.10;2.38;;;22.00;93.80;;;;;;4992104;28;20030;-77
2021/06/22 00:25:19;;;;;;;3.25;2.13;;;22.00;94.00;;;;;;4992124;28;20518;-75
2021/06/22 00:27:45;;;;;;;3.17;2.35;;;21.90;94.10;;;;;;4991899;28;20018;-75
2021/06/22 00:30:12;;;;;;;3.08;2.17;;;21.90;93.70;;;;;;4991880;28;20022;-76
2021/06/22 00:32:38;;;;;;;3.65;2.40;;;21.90;94.00;;;;;;4991482;28;20030;-76
2021/06/22 00:35:05;;;;;;;3.85;2.75;;;21.90;93.80;;;;;;4992244;28;20113;-75
2021/06/22 00:37:31;;;;;;;3.47;2.70;;;21.90;93.80;;;;;;4991656;28;20018;-78
2021/06/22 00:39:57;;;;;;;3.72;2.78;;;21.90;94.00;;;;;;4991910;28;20023;-78
2021/06/22 00:42:22;;;;;;;3.38;2.28;;;21.90;94.00;;;;;;4991853;28;20383;-80
2021/06/22 00:44:54;;;;;;;3.97;2.45;;;21.90;93.70;;;;;;4991794;28;20029;-79
2021/06/22 00:47:21;;;;;;;3.92;2.40;;;21.90;93.80;;;;;;4992197;28;20101;-79
2021/06/22 00:49:48;;;;;;;3.75;2.33;;;21.90;93.80;;;;;;4990989;28;20026;-79
2021/06/22 00:52:15;;;;;;;3.67;2.70;;;21.90;93.70;;;;;;4991202;28;20395;-80
2021/06/22 00:54:40;;;;;;;4.05;2.72;;;21.90;93.70;;;;;;4991554;28;20065;-77
2021/06/22 00:57:08;;;;;;;2.53;2.17;;;21.90;93.80;;;;;;4990753;28;20063;-78
2021/06/22 00:59:34;;;;;;;3.30;2.28;;;21.90;93.70;;;;;;4991191;28;20026;-77
2021/06/22 01:02:05;;;;;;;3.35;2.80;;;21.90;93.80;;;;;;4991254;28;20565;-79
2021/06/22 01:04:31;;;;;;;3.65;2.50;;;21.90;93.70;;;;;;4991533;28;20023;-79
2021/06/22 01:06:58;;;;;;;3.20;2.50;;;21.90;93.50;;;;;;4990284;28;20041;-79
2021/06/22 01:09:25;;;;;;;3.33;2.30;;;21.90;93.60;;;;;;4991320;28;20478;-77
2021/06/22 01:11:51;;;;;;;2.65;2.38;;;21.90;93.60;;;;;;4990373;28;20026;-79
2021/06/22 01:14:18;;;;;;;3.17;2.30;;;21.90;93.40;;;;;;4989988;28;20027;-79
2021/06/22 01:16:44;;;;;;;4.38;2.38;;;21.90;93.60;;;;;;4991389;28;20184;-79
2021/06/22 01:19:10;;;;;;;3.78;2.30;;;21.90;93.70;;;;;;4991046;28;20034;-78
2021/06/22 01:21:37;;;;;;;3.58;2.20;;;21.90;93.80;;;;;;4990838;28;20382;-78
2021/06/22 01:24:08;;;;;;;3.95;2.63;;;21.90;93.70;;;;;;4991334;28;20026;-79
2021/06/22 01:26:36;;;;;;;4.25;2.50;;;21.80;93.50;;;;;;4991094;28;20061;-79
2021/06/22 01:29:03;;;;;;;3.45;2.40;;;21.80;93.30;;;;;;4991276;28;20031;-77
2021/06/22 01:31:29;;;;;;;4.22;2.35;;;21.80;93.40;;;;;;4989985;28;20085;-75
2021/06/22 01:33:55;;;;;;;5.07;2.60;;;21.90;93.40;;;;;;4990616;28;20019;-76
2021/06/22 01:36:21;;;;;;;4.03;2.75;;;21.80;93.40;;;;;;4991663;28;20482;-77
2021/06/22 01:38:47;;;;;;;3.95;2.33;;;21.80;93.30;;;;;;4991330;28;20062;-77
2021/06/22 01:41:13;;;;;;;4.35;2.25;;;21.80;93.30;;;;;;4991109;28;20903;-79
2021/06/22 01:43:39;;;;;;;3.53;2.58;;;21.80;93.10;;;;;;4990967;28;20113;-76
2021/06/22 01:46:05;;;;;;;3.53;2.53;;;21.80;93.50;;;;;;4991282;28;20045;-78
2021/06/22 01:48:31;;;;;;;3.28;2.40;;;21.80;93.20;;;;;;4990789;28;20046;-78
2021/06/22 01:50:58;;;;;;;2.80;2.15;;;21.80;93.20;;;;;;4991171;28;20073;-78
2021/06/22 01:53:24;;;;;;;3.70;2.70;;;21.80;93.00;;;;;;4991056;28;20026;-75
2021/06/22 01:55:51;;;;;;;2.50;1.88;;;21.80;93.10;;;;;;4991555;28;20062;-77
2021/06/22 01:58:17;;;;;;;3.10;2.50;;;21.80;93.10;;;;;;4991231;28;20026;-78
2021/06/22 02:00:51;;;;;;;3.60;2.20;;;21.80;93.10;;;;;;4990042;28;20113;-78
2021/06/22 02:03:19;;;;;;;2.83;2.33;;;21.80;93.00;;;;;;4990640;28;20026;-77
2021/06/22 02:05:46;;;;;;;4.18;2.70;;;21.80;93.00;;;;;;4990905;28;20023;-76
2021/06/22 02:08:11;;;;;;;2.92;2.40;;;21.80;92.90;;;;;;4991062;28;20165;-76
2021/06/22 02:10:37;;;;;;;3.53;2.30;;;21.70;92.60;;;;;;4994199;28;20121;-76
2021/06/22 02:13:04;;;;;;;4.60;2.70;;;21.70;92.80;;;;;;4994186;28;20034;-77
2021/06/22 02:15:30;;;;;;;3.50;2.50;;;21.70;92.80;;;;;;4994405;28;20018;-76
2021/06/22 02:17:55;;;;;;;2.92;2.22;;;21.80;92.70;;;;;;4994615;28;20119;-75
2021/06/22 02:20:21;;;;;;;3.38;2.33;;;21.70;92.70;;;;;;4994132;28;20030;-77
2021/06/22 02:22:47;;;;;;;2.75;2.22;;;21.70;92.60;;;;;;4993772;28;20042;-75
2021/06/22 02:25:13;;;;;;;4.50;2.45;;;21.70;92.90;;;;;;4994538;28;20085;-76
2021/06/22 02:27:40;;;;;;;3.72;2.60;;;21.70;92.60;;;;;;4994133;28;20034;-78
2021/06/22 02:30:11;;;;;;;4.18;2.25;;;21.70;92.50;;;;;;4994463;28;20042;-77
2021/06/22 02:32:37;;;;;;;2.97;2.20;;;21.70;92.50;;;;;;4993604;28;20030;-76
2021/06/22 02:35:08;;;;;;;4.95;2.30;;;21.70;92.50;;;;;;4994275;28;20053;-76
2021/06/22 02:37:38;;;;;;;3.67;2.58;;;21.70;92.20;;;;;;4993820;28;20023;-76
2021/06/22 02:40:06;;;;;;;3.17;2.80;;;21.70;92.40;;;;;;4994082;28;20061;-76
2021/06/22 02:42:31;;;;;;;3.53;2.85;;;21.70;92.30;;;;;;4993499;28;20030;-76
2021/06/22 02:44:57;;;;;;;3.83;2.30;;;21.70;92.40;;;;;;4993972;28;20410;-76
2021/06/22 02:47:23;;;;;;;4.57;2.22;;;21.70;92.30;;;;;;4994123;28;20126;-75
2021/06/22 02:49:50;;;;;;;3.25;2.30;;;21.70;92.20;;;;;;4993854;28;20054;-76
2021/06/22 02:52:15;;;;;;;3.20;2.10;;;21.70;92.20;;;;;;4993316;28;20034;-75
2021/06/22 02:54:41;;;;;;;4.18;2.50;;;21.70;92.20;;;;;;4993601;28;20025;-75
2021/06/22 02:57:08;;;;;;;2.85;2.25;;;21.70;92.20;;;;;;4993518;28;20047;-75
2021/06/22 02:59:35;;;;;;;4.00;2.53;;;21.70;92.00;;;;;;4993594;28;20038;-76
2021/06/22 03:02:02;;;;;;;4.55;2.28;;;21.70;92.10;;;;;;4993323;28;20046;-76
2021/06/22 03:04:27;;;;;;;2.22;2.00;;;21.60;92.00;;;;;;4976187;28;20449;-76
2021/06/22 03:06:53;;;;;;;3.03;2.33;;;21.70;92.00;;;;;;4993689;28;20026;-74
2021/06/22 03:09:19;;;;;;;3.13;2.20;;;21.60;92.00;;;;;;4993553;28;20057;-76
2021/06/22 03:11:45;;;;;;;3.25;2.72;;;21.60;91.90;;;;;;4992812;28;20030;-76
2021/06/22 03:14:11;;;;;;;3.97;2.25;;;21.60;91.80;;;;;;4993387;28;20027;-76
2021/06/22 03:16:36;;;;;;;5.20;2.20;;;21.70;91.70;;;;;;4993160;28;20034;-76
2021/06/22 03:19:02;;;;;;;2.58;2.13;;;21.60;91.80;;;;;;4993531;28;20022;-75
2021/06/22 03:21:28;;;;;;;5.28;2.50;;;21.60;91.70;;;;;;4991920;28;20044;-76
2021/06/22 03:23:56;;;;;;;4.35;2.70;;;21.60;91.70;;;;;;4992546;28;20054;-75
2021/06/22 03:26:23;;;;;;;4.03;2.40;;;21.60;91.60;;;;;;4992480;28;20034;-75
2021/06/22 03:28:48;;;;;;;3.20;2.17;;;21.60;91.60;;;;;;4993526;28;20478;-76
2021/06/22 03:31:14;;;;;;;5.32;2.55;;;21.60;91.60;;;;;;4992882;28;20036;-76
2021/06/22 03:33:40;;;;;;;3.05;2.28;;;21.60;91.60;;;;;;4992641;28;20023;-75
2021/06/22 03:36:06;;;;;;;3.30;2.20;;;21.60;91.60;;;;;;4993158;28;20027;-76
2021/06/22 03:38:32;;;;;;;3.17;2.47;;;21.60;91.40;;;;;;4992908;28;20026;-75
2021/06/22 03:40:58;;;;;;;3.80;2.45;;;21.60;91.50;;;;;;4992497;28;20034;-76
2021/06/22 03:43:23;;;;;;;3.58;2.30;;;21.60;91.50;;;;;;4992006;28;20517;-76
2021/06/22 03:45:49;;;;;;;2.85;2.13;;;21.60;91.40;;;;;;4993066;28;20080;-76
2021/06/22 03:48:15;;;;;;;2.47;2.20;;;21.50;91.40;;;;;;4992971;28;20037;-75
2021/06/22 03:50:41;;;;;;;3.25;2.25;;;21.60;91.40;;;;;;4992515;28;20414;-76
2021/06/22 03:53:07;;;;;;;3.95;2.45;;;21.50;91.20;;;;;;4992335;28;20430;-75
2021/06/22 03:55:33;;;;;;;3.63;2.42;;;21.50;91.30;;;;;;4992465;28;20032;-76
2021/06/22 03:58:00;;;;;;;3.17;2.00;;;21.50;91.20;;;;;;4992559;28;20027;-76
2021/06/22 04:00:27;;;;;;;2.67;1.90;;;21.50;91.20;;;;;;4992180;28;20050;-75
2021/06/22 04:02:56;;;;;;;3.10;2.00;;;21.50;91.20;;;;;;4992339;28;20026;-75
2021/06/22 04:05:22;;;;;;;3.80;2.22;;;21.50;91.10;;;;;;4992882;28;20034;-76
2021/06/22 04:07:48;;;;;;;3.72;2.03;;;21.50;91.10;;;;;;4992599;28;20027;-77
2021/06/22 04:10:15;;;;;;;4.85;2.40;;;21.50;91.10;;;;;;4992183;28;20030;-77
2021/06/22 04:12:41;;;;;;;3.58;2.20;;;21.50;91.10;;;;;;4991262;28;20134;-75
2021/06/22 04:15:08;;;;;;;4.10;2.45;;;21.50;91.10;;;;;;4991116;28;20542;-76
2021/06/22 04:17:34;;;;;;;3.58;2.20;;;21.50;91.00;;;;;;4991853;28;20537;-76
2021/06/22 04:19:59;;;;;;;5.15;2.15;;;21.50;90.90;;;;;;4992376;28;20026;-76
2021/06/22 04:22:25;;;;;;;3.67;2.33;;;21.50;90.80;;;;;;4987309;28;20039;-75
2021/06/22 04:24:51;;;;;;;4.93;2.50;;;21.50;90.80;;;;;;4972983;28;20053;-74
2021/06/22 04:27:16;;;;;;;2.45;2.03;;;21.50;90.80;;;;;;4987586;28;20041;-75
2021/06/22 04:29:42;;;;;;;3.13;1.88;;;21.50;90.70;;;;;;4972286;28;20545;-76
2021/06/22 04:32:08;;;;;;;4.45;2.28;;;21.50;90.70;;;;;;4983551;28;20414;-76
2021/06/22 04:34:34;;;;;;;2.97;1.90;;;21.50;90.70;;;;;;4991929;28;20066;-77
2021/06/22 04:36:59;;;;;;;3.45;2.10;;;21.40;90.60;;;;;;4992015;28;20019;-76
2021/06/22 04:39:25;;;;;;;3.67;2.10;;;21.50;90.60;;;;;;4991699;28;20386;-76
2021/06/22 04:41:51;;;;;;;4.13;2.25;;;21.50;90.60;;;;;;4991750;28;20525;-76
2021/06/22 04:44:16;;;;;;;4.22;1.77;;;21.40;90.60;;;;;;4991748;28;20109;-77
2021/06/22 04:46:42;;;;;;;4.35;2.10;;;21.40;90.50;;;;;;4991650;28;20026;-76
2021/06/22 04:49:08;;;;;;;5.18;2.17;;;21.50;90.50;;;;;;4991828;28;20026;-78
2021/06/22 04:51:34;;;;;;;3.38;1.88;;;21.40;90.50;;;;;;4991260;28;20053;-75
2021/06/22 04:53:59;;;;;;;4.20;2.08;;;21.40;90.40;;;;;;4991875;28;20474;-76
2021/06/22 04:56:25;;;;;;;3.65;1.95;;;21.40;90.40;;;;;;4990482;28;20026;-75
2021/06/22 04:58:55;;;;;;;3.85;1.80;;;21.40;90.30;;;;;;4991805;28;20064;-76
2021/06/22 05:01:20;;;;;;;3.88;1.70;;;21.40;90.30;;;;;;4990798;28;20037;-78
2021/06/22 05:03:46;;;;;;;5.43;2.20;;;21.40;90.40;;;;;;4990428;28;20035;-78
2021/06/22 05:06:12;;;;;;;2.17;1.50;;;21.40;90.30;;;;;;4991842;28;20478;-75
2021/06/22 05:08:38;;;;;;;2.92;1.90;;;21.40;90.20;;;;;;4991337;28;20093;-76
2021/06/22 05:11:07;;;;;;;4.15;2.50;;;21.40;90.30;;;;;;4991411;28;20118;-76
2021/06/22 05:13:34;;;;;;;3.17;2.05;;;21.40;90.60;;;;;;4991111;28;20034;-77
2021/06/22 05:16:00;;;;;;;2.58;1.98;;;21.40;90.20;;;;;;4991733;28;20037;-75
2021/06/22 05:18:26;;;;;;;4.75;2.38;;;21.40;90.20;;;;;;4991688;28;20097;-77
2021/06/22 05:20:52;;;;;;;3.45;2.05;;;21.40;90.10;;;;;;4991163;28;20417;-76
2021/06/22 05:23:18;;;;;;;3.85;2.10;;;21.30;90.10;;;;;;4991482;28;20030;-75
2021/06/22 05:25:44;;;;;;;3.17;2.10;;;21.40;90.10;;;;;;4991239;28;20398;-77
2021/06/22 05:28:10;;;;;;;4.70;2.13;;;21.30;90.00;;;;;;4991284;28;20106;-75
2021/06/22 05:30:36;;;;;;;3.78;2.25;;;21.30;90.30;;;;;;4990911;28;20453;-76
2021/06/22 05:33:02;;;;;;;2.97;2.00;;;21.40;90.00;;;;;;4991337;28;20030;-76
2021/06/22 05:35:28;;;;;;;2.97;1.88;;;21.30;90.20;;;;;;4991097;28;20101;-75
2021/06/22 05:37:54;;;;;;;3.50;2.13;;;21.30;89.80;;;;;;4991677;28;20101;-75
2021/06/22 05:40:20;;;;;;;3.70;2.10;;;21.30;89.70;;;;;;5006211;28;20027;-75
2021/06/22 05:42:46;;;;;;;4.63;1.65;;;21.30;89.60;;;;;;4990309;28;20030;-77
2021/06/22 05:45:12;;;;;;;3.20;1.80;;;21.30;89.50;;;;;;4994185;28;20029;-76
2021/06/22 05:47:38;;;;;;;4.20;2.17;;;21.30;89.60;;;;;;5010020;28;20398;-75
2021/06/22 05:50:05;;;;;;;3.42;1.42;;;21.30;89.30;;;;;;4994685;28;20019;-75
2021/06/22 05:52:30;;;;;;;3.05;1.80;;;21.30;89.60;;;;;;4994158;28;20030;-75
2021/06/22 05:54:56;;;;;;;3.72;1.92;;;21.30;89.40;;;;;;4995122;28;20026;-74
2021/06/22 05:57:22;;;;;;;2.50;1.80;;;21.30;89.30;;;;;;4995032;28;20130;-75
2021/06/22 05:59:47;;;;;;;4.50;2.20;;;21.30;89.30;;;;;;4994220;28;20085;-74
2021/06/22 06:02:13;;;;;;;3.40;2.08;;;21.30;89.40;;;;;;4994043;28;20049;-75
2021/06/22 06:04:39;;;;;;;2.25;1.38;;;21.30;89.30;;;;;;5009504;28;20034;-74
2021/06/22 06:07:05;;;;;;;4.78;1.80;;;21.30;89.10;;;;;;4994715;28;20023;-75
2021/06/22 06:09:30;;;;;;;3.72;2.13;;;21.30;89.20;;;;;;4994168;28;20015;-76
2021/06/22 06:11:56;;;;;;;2.55;1.65;;;21.30;89.00;;;;;;4994434;28;20089;-76
2021/06/22 06:14:22;;;;;;;3.10;2.08;;;21.30;89.10;;;;;;4994486;28;20023;-75
2021/06/22 06:16:48;;;;;;;3.00;2.00;;;21.30;89.00;;;;;;4994693;28;20054;-75
2021/06/22 06:19:14;;;;;;;3.28;1.80;;;21.30;88.90;;;;;;4994601;28;20057;-75
2021/06/22 06:21:40;;;;;;;4.78;2.10;;;21.30;88.90;;;;;;4993901;28;20491;-75
2021/06/22 06:24:07;;;;;;;3.17;1.77;;;21.30;88.70;;;;;;4993918;28;20027;-75
2021/06/22 06:26:42;;;;;;;3.28;1.88;;;21.30;88.80;;;;;;5044193;28;20458;-77
2021/06/22 06:32:06;;;;;;;3.55;1.70;;;21.30;88.80;;;;;;4973411;28;20387;-73
2021/06/22 06:34:32;;;;;;;5.20;2.13;;;21.30;88.70;;;;;;4974302;28;20054;-73
2021/06/22 06:36:57;;;;;;;2.88;1.77;;;21.20;88.50;;;;;;4974888;28;20054;-77
2021/06/22 06:39:23;;;;;;;4.72;1.73;;;21.20;88.70;;;;;;4974719;28;20053;-75
2021/06/22 06:41:49;;;;;;;4.05;1.90;;;21.20;88.60;;;;;;4987660;28;20053;-75
2021/06/22 06:44:14;;;;;;;2.78;1.73;;;21.20;88.70;;;;;;4999110;28;20398;-74
2021/06/22 06:46:40;;;;;;;5.15;2.13;;;21.20;88.70;;;;;;4992823;28;20103;-75
2021/06/22 06:49:05;;;;;;;14.20;2.38;;;21.20;88.70;;;;;;4994180;28;20022;-74
2021/06/22 06:51:31;;;;;;;4.25;2.30;;;21.20;89.20;;;;;;4993741;28;20022;-75
2021/06/22 06:53:57;;;;;;;5.68;1.77;;;21.20;88.90;;;;;;4993965;28;20027;-73
2021/06/22 06:56:23;;;;;;;6.90;2.15;;;21.20;89.30;;;;;;4993230;28;20088;-75
2021/06/22 06:58:49;;;;;;;5.07;1.92;;;21.20;89.10;;;;;;4994936;28;20054;-74
2021/06/22 07:01:15;;;;;;;4.47;2.00;;;21.20;89.40;;;;;;4992040;28;20070;-73
2021/06/22 07:03:44;;;;;;;4.93;2.58;;;21.30;89.80;;;;;;4992912;28;20033;-74
2021/06/22 07:06:11;;;;;;;7.55;3.03;;;21.30;90.10;;;;;;4993572;28;20521;-73
2021/06/22 07:08:37;;;;;;;4.40;2.42;;;21.30;90.10;;;;;;4993423;28;20113;-74
2021/06/22 07:11:02;;;;;;;3.42;2.50;;;21.30;90.10;;;;;;4993579;28;20113;-73
2021/06/22 07:13:28;;;;;;;4.90;2.70;;;21.30;90.00;;;;;;4993356;28;20030;-74
2021/06/22 07:15:54;;;;;;;6.22;3.60;;;21.30;90.20;;;;;;4992004;28;20037;-76
2021/06/22 07:18:20;;;;;;;6.10;3.30;;;21.30;90.10;;;;;;4993036;28;20037;-74
2021/06/22 07:20:47;;;;;;;8.68;3.47;;;21.30;90.10;;;;;;4992734;28;20453;-73
2021/06/22 07:23:13;;;;;;;8.15;3.22;;;21.30;90.00;;;;;;4993376;28;20085;-72
2021/06/22 07:25:39;;;;;;;5.82;2.95;;;21.30;90.10;;;;;;4992545;28;20022;-74
2021/06/22 07:28:08;;;;;;;5.55;2.97;;;21.30;90.00;;;;;;4992418;28;20033;-73
2021/06/22 07:30:34;;;;;;;5.95;3.20;;;21.30;89.90;;;;;;4992596;28;20019;-73
2021/06/22 07:32:59;;;;;;;8.38;3.40;;;21.30;89.60;;;;;;4993571;28;20026;-72
2021/06/22 07:35:27;;;;;;;7.63;3.03;;;21.30;89.50;;;;;;4992835;28;20022;-72
2021/06/22 07:37:53;;;;;;;4.75;2.60;;;21.30;89.50;;;;;;4992997;28;20139;-73
2021/06/22 07:40:19;;;;;;;7.95;3.05;;;21.30;89.20;;;;;;4992198;28;20109;-74
2021/06/22 07:42:45;;;;;;;5.85;2.80;;;21.20;89.20;;;;;;4990312;28;20050;-74
2021/06/22 07:45:12;;;;;;;5.65;2.70;;;21.30;89.20;;;;;;4991042;28;20088;-74
2021/06/22 07:47:38;;;;;;;12.90;3.22;;;21.30;89.10;;;;;;4990280;28;20038;-74
2021/06/22 07:50:07;;;;;;;5.28;2.70;;;21.20;89.10;;;;;;4992568;28;20045;-73
2021/06/22 07:52:32;;;;;;;7.28;2.30;;;21.30;88.90;;;;;;4992435;28;20486;-76
2021/06/22 07:54:58;;;;;;;4.05;2.55;;;21.20;89.00;;;;;;5007931;28;20026;-74
2021/06/22 07:57:23;;;;;;;5.25;2.50;;;21.20;89.00;;;;;;4992013;28;20037;-74
2021/06/22 07:59:49;;;;;;;4.88;2.10;;;21.20;88.80;;;;;;4992401;28;20038;-76
2021/06/22 08:02:15;;;;;;;6.45;2.55;;;21.20;88.70;;;;;;5007472;28;20087;-75
2021/06/22 08:04:40;;;;;;;7.32;2.80;;;21.30;88.80;;;;;;4992128;28;20030;-74
2021/06/22 08:07:06;;;;;;;5.20;2.50;;;21.20;88.60;;;;;;4992066;28;20030;-74
2021/06/22 08:09:31;;;;;;;5.57;2.78;;;21.20;88.60;;;;;;4995645;28;20113;-74
2021/06/22 08:11:57;;;;;;;5.63;2.80;;;21.20;88.50;;;;;;4992341;28;20026;-74
2021/06/22 08:14:23;;;;;;;4.28;2.08;;;21.20;88.40;;;;;;4991725;28;20442;-75
2021/06/22 08:16:48;;;;;;;5.63;2.30;;;21.30;88.40;;;;;;4992421;28;20026;-75
2021/06/22 08:19:14;;;;;;;8.82;2.58;;;21.30;88.20;;;;;;4991032;28;20026;-74
2021/06/22 08:21:40;;;;;;;5.07;2.30;;;21.30;88.10;;;;;;4991577;28;20038;-74
2021/06/22 08:24:06;;;;;;;7.38;2.47;;;21.30;88.10;;;;;;4992120;28;20038;-74
2021/06/22 08:26:32;;;;;;;5.57;2.60;;;21.30;87.90;;;;;;4992216;28;20030;-74
2021/06/22 08:28:58;;;;;;;5.68;2.72;;;21.30;87.90;;;;;;4991590;28;20482;-74
2021/06/22 08:31:24;;;;;;;5.50;2.50;;;21.30;87.80;;;;;;4991891;28;20089;-76
2021/06/22 08:33:49;;;;;;;4.60;2.63;;;21.30;87.80;;;;;;4992137;28;20025;-78
2021/06/22 08:36:15;;;;;;;5.07;2.65;;;21.30;87.60;;;;;;4992112;28;20513;-77
2021/06/22 08:38:41;;;;;;;5.43;2.17;;;21.30;87.50;;;;;;4991821;28;20022;-75
2021/06/22 08:41:08;;;;;;;4.05;2.30;;;21.30;87.50;;;;;;4991512;28;20133;-74
2021/06/22 08:43:34;;;;;;;3.67;2.35;;;21.30;87.50;;;;;;4991976;28;20023;-74
2021/06/22 08:46:04;;;;;;;6.53;2.30;;;21.30;87.60;;;;;;4990764;28;20026;-74
2021/06/22 08:48:31;;;;;;;4.63;2.05;;;21.30;87.50;;;;;;4990371;28;20023;-74
2021/06/22 08:50:57;;;;;;;4.55;2.10;;;21.30;87.40;;;;;;5006169;28;20109;-74
2021/06/22 08:53:22;;;;;;;4.20;2.35;;;21.30;87.30;;;;;;4991841;28;20105;-73
2021/06/22 08:55:48;;;;;;;4.25;2.47;;;21.30;87.20;;;;;;4991492;28;20026;-74
2021/06/22 08:58:17;;;;;;;5.07;2.42;;;21.40;87.20;;;;;;4991719;28;20030;-75
2021/06/22 09:00:49;;;;;;;4.40;2.00;;;21.30;87.20;;;;;;4991312;28;20049;-74
2021/06/22 09:03:23;;;;;;;5.43;2.47;;;21.40;87.10;;;;;;4991803;28;20029;-74
2021/06/22 09:05:53;;;;;;;4.20;2.33;;;21.40;87.00;;;;;;4991804;28;20026;-75
2021/06/22 09:08:26;;;;;;;6.40;2.40;;;21.40;87.00;;;;;;5006576;28;20029;-75
2021/06/22 09:11:01;;;;;;;5.85;2.38;;;21.40;87.00;;;;;;4991354;28;20533;-75
2021/06/22 09:13:27;;;;;;;5.72;2.85;;;21.30;86.80;;;;;;4990875;28;20034;-74
2021/06/22 09:15:54;;;;;;;4.85;2.40;;;21.40;87.00;;;;;;4991658;28;20454;-74
2021/06/22 09:18:29;;;;;;;4.45;2.72;;;21.40;86.90;;;;;;4992088;28;20041;-75
2021/06/22 09:21:06;;;;;;;4.88;2.38;;;21.30;86.80;;;;;;4995432;28;20038;-73
2021/06/22 09:23:34;;;;;;;3.45;2.60;;;21.40;86.90;;;;;;4995746;28;20029;-74
2021/06/22 09:26:08;;;;;;;7.93;3.25;;;21.40;86.80;;;;;;4993933;28;20030;-74
2021/06/22 09:28:34;;;;;;;3.72;2.25;;;21.40;86.80;;;;;;4995637;28;20026;-75
2021/06/22 09:31:05;;;;;;;7.38;2.92;;;21.40;86.70;;;;;;4995378;28;20069;-74
2021/06/22 09:33:50;;;;;;;5.93;2.80;;;21.40;86.70;;;;;;4995063;28;20018;-75
2021/06/22 09:36:23;;;;;;;3.83;2.85;;;21.40;86.50;;;;;;4995429;28;20026;-74
2021/06/22 09:38:52;;;;;;;3.72;2.38;;;21.40;86.30;;;;;;4995145;28;20494;-75
2021/06/22 09:41:26;;;;;;;5.95;2.63;;;21.40;86.30;;;;;;4995272;28;20065;-74
2021/06/22 09:44:09;;;;;;;6.18;3.53;;;21.40;86.30;;;;;;4994759;28;20097;-73
2021/06/22 09:46:35;;;;;;;5.25;2.40;;;21.40;86.30;;;;;;4994900;28;20471;-73
2021/06/22 09:49:02;;;;;;;4.25;2.65;;;21.40;85.90;;;;;;4995226;28;20040;-73
2021/06/22 09:51:50;;;;;;;3.72;2.42;;;21.40;86.10;;;;;;4994831;28;20141;-73
2021/06/22 09:54:15;;;;;;;3.80;2.20;;;21.40;86.20;;;;;;4995118;28;20030;-74
2021/06/22 09:57:05;;;;;;;3.63;2.17;;;21.40;86.20;;;;;;4994302;28;20089;-74
2021/06/22 09:59:45;;;;;;;3.65;2.00;;;21.40;86.20;;;;;;4994524;28;20114;-74
2021/06/22 10:02:10;;;;;;;3.85;2.30;;;21.50;86.80;;;;;;4994527;28;20038;-73
2021/06/22 10:04:40;;;;;;;4.13;2.30;;;21.50;86.10;;;;;;4994568;28;20027;-73
2021/06/22 10:07:10;;;;;;;4.82;2.50;;;21.50;86.00;;;;;;4995128;28;20038;-73
2021/06/22 10:09:36;;;;;;;3.75;2.70;;;21.50;86.10;;;;;;4994885;28;20023;-73
2021/06/22 10:12:20;;;;;;;3.88;2.58;;;21.50;85.90;;;;;;4993629;28;20501;-74
2021/06/22 10:14:48;;;;;;;4.35;2.15;;;21.50;85.80;;;;;;4994137;28;20037;-73
2021/06/22 10:17:18;;;;;;;3.40;2.47;;;21.50;85.80;;;;;;5009251;28;20034;-73
2021/06/22 10:19:46;;;;;;;4.05;2.40;;;21.50;85.70;;;;;;5008605;28;20403;-73
2021/06/22 10:22:16;;;;;;;3.97;2.55;;;21.60;85.70;;;;;;4990795;28;20031;-74
2021/06/22 10:24:45;;;;;;;5.05;2.60;;;21.60;85.50;;;;;;4983567;28;20101;-73
2021/06/22 10:27:12;;;;;;;4.55;2.38;;;21.60;85.50;;;;;;4993646;28;20022;-77
2021/06/22 10:29:38;;;;;;;4.53;2.55;;;21.60;85.30;;;;;;4994126;28;20018;-76
2021/06/22 10:32:05;;;;;;;3.28;1.92;;;21.60;85.30;;;;;;4993456;28;20022;-77
2021/06/22 10:34:31;;;;;;;4.95;2.22;;;21.60;85.30;;;;;;4994049;28;20030;-80
2021/06/22 10:37:12;;;;;;;5.18;2.85;;;21.60;85.50;;;;;;4994605;28;20092;-76
2021/06/22 10:40:00;;;;;;;4.70;2.67;;;21.60;85.40;;;;;;4994304;28;20038;-79
2021/06/22 10:42:47;;;;;;;2.90;2.05;;;21.60;85.70;;;;;;4992353;28;20449;-73
2021/06/22 10:45:13;;;;;;;5.00;2.33;;;21.60;85.80;;;;;;4992303;28;20018;-75
2021/06/22 10:47:43;;;;;;;6.05;2.70;;;21.60;85.90;;;;;;4992344;28;20495;-75
2021/06/22 10:50:13;;;;;;;3.30;2.22;;;21.60;86.10;;;;;;4992712;28;20461;-75
2021/06/22 10:52:42;;;;;;;3.50;2.60;;;21.60;86.00;;;;;;4989612;28;20041;-75
2021/06/22 10:55:08;;;;;;;4.32;2.22;;;21.60;86.00;;;;;;4989829;28;20027;-75
2021/06/22 11:00:49;;;;;;;3.85;2.58;;;21.70;85.90;;;;;;4993122;28;20126;-75
2021/06/22 11:03:31;;;;;;;4.18;2.72;;;21.70;85.90;;;;;;4993632;28;20026;-74
2021/06/22 11:06:12;;;;;;;3.72;2.30;;;21.70;86.00;;;;;;4993529;28;20401;-74
2021/06/22 11:08:42;;;;;;;5.10;2.72;;;21.60;86.00;;;;;;4993703;28;20022;-74
2021/06/22 11:11:08;;;;;;;4.55;3.00;;;21.60;86.00;;;;;;4992529;28;20027;-76
2021/06/22 11:13:46;;;;;;;4.53;2.40;;;21.60;86.10;;;;;;4993142;28;20518;-74
2021/06/22 11:16:18;;;;;;;4.82;2.60;;;21.60;86.00;;;;;;4992539;28;20028;-74
2021/06/22 11:21:24;;;;;;;5.77;3.10;;;21.60;86.00;;;;;;4990452;28;20348;-75
2021/06/22 11:24:17;;;;;;;5.57;3.60;;;21.60;86.10;;;;;;4992353;28;20270;-75
2021/06/22 11:26:46;;;;;;;5.40;2.80;;;21.60;86.40;;;;;;4992818;28;20030;-75
2021/06/22 11:29:18;;;;;;;7.38;3.05;;;21.60;87.00;;;;;;4993307;28;20022;-74
2021/06/22 11:31:56;;;;;;;4.82;3.22;;;21.60;87.00;;;;;;4992604;28;20030;-75
2021/06/22 11:34:25;;;;;;;5.35;2.90;;;21.60;87.10;;;;;;4992638;28;20018;-75
2021/06/22 11:36:56;;;;;;;5.70;3.05;;;21.60;87.10;;;;;;4991634;28;20041;-74
2021/06/22 11:39:29;;;;;;;6.05;3.88;;;21.60;87.30;;;;;;4992670;28;20027;-76
2021/06/22 11:42:13;;;;;;;7.43;3.25;;;21.60;87.20;;;;;;4990800;28;20034;-77
2021/06/22 11:44:44;;;;;;;4.85;3.20;;;21.60;87.50;;;;;;4993142;28;20050;-75
2021/06/22 11:47:13;;;;;;;5.57;3.65;;;21.60;87.40;;;;;;4992957;28;20037;-75
2021/06/22 11:49:43;;;;;;;5.93;3.55;;;21.60;87.50;;;;;;5007230;28;20033;-75
2021/06/22 11:52:11;;;;;;;8.23;3.70;;;21.50;87.70;;;;;;4993157;28;20018;-76
2021/06/22 11:54:58;;;;;;;7.78;4.45;;;21.50;87.90;;;;;;4992239;28;20061;-75
2021/06/22 11:57:27;;;;;;;5.07;3.42;;;21.50;87.90;;;;;;5006992;28;20034;-74
2021/06/22 11:59:54;;;;;;;7.53;3.90;;;21.50;87.90;;;;;;4991914;28;20030;-75
2021/06/22 12:02:20;;;;;;;6.15;3.75;;;21.50;87.80;;;;;;4992136;28;20038;-75
2021/06/22 12:04:48;;;;;;;6.25;4.25;;;21.50;87.90;;;;;;4991108;28;20093;-75
2021/06/22 12:07:15;;;;;;;6.82;4.30;;;21.50;87.80;;;;;;4992516;28;20031;-74
2021/06/22 12:09:43;;;;;;;6.43;4.88;;;21.50;87.60;;;;;;4992743;28;20467;-75
2021/06/22 12:12:09;;;;;;;6.18;4.93;;;21.50;87.50;;;;;;4992915;28;20045;-75
2021/06/22 12:14:44;;;;;;;6.50;4.43;;;21.50;87.60;;;;;;4991900;28;20018;-76
2021/06/22 12:17:17;;;;;;;7.65;4.93;;;21.50;87.40;;;;;;4992866;28;20486;-76
2021/06/22 12:19:44;;;;;;;6.18;4.20;;;21.50;87.40;;;;;;5007136;28;20124;-74
2021/06/22 12:22:12;;;;;;;8.32;4.90;;;21.50;87.30;;;;;;4992677;28;20049;-76
2021/06/22 12:24:39;;;;;;;8.05;5.00;;;21.50;87.20;;;;;;4992719;28;20023;-76
2021/06/22 12:27:05;;;;;;;8.27;5.18;;;21.50;87.20;;;;;;4991658;28;20054;-77
2021/06/22 12:29:32;;;;;;;6.88;4.82;;;21.50;87.10;;;;;;4991776;28;20101;-75
2021/06/22 12:32:06;;;;;;;9.35;5.40;;;21.50;87.20;;;;;;4992272;28;20034;-75
2021/06/22 12:34:35;;;;;;;7.57;5.43;;;21.50;87.10;;;;;;4992424;28;20022;-75
2021/06/22 12:37:01;;;;;;;6.90;5.50;;;21.50;87.10;;;;;;4992275;28;20053;-75
2021/06/22 12:39:36;;;;;;;8.00;5.97;;;21.50;87.10;;;;;;4991895;28;20050;-75
2021/06/22 12:42:10;;;;;;;8.85;5.75;;;21.50;87.10;;;;;;4992061;28;20030;-76
2021/06/22 12:44:37;;;;;;;9.13;6.03;;;21.50;86.90;;;;;;4991923;28;20034;-74
2021/06/22 12:47:05;;;;;;;6.85;5.78;;;21.50;86.90;;;;;;4992041;28;20026;-75
2021/06/22 12:49:32;;;;;;;7.97;6.72;;;21.50;87.60;;;;;;4992186;28;20030;-76
2021/06/22 12:52:02;;;;;;;7.82;6.43;;;21.50;86.90;;;;;;5007199;28;20033;-76
2021/06/22 12:54:37;;;;;;;7.82;6.50;;;21.40;86.90;;;;;;4991922;28;20014;-75
2021/06/22 12:57:06;;;;;;;9.18;5.80;;;21.40;86.90;;;;;;4991602;28;20462;-75
2021/06/22 12:59:46;;;;;;;7.60;6.35;;;21.40;87.00;;;;;;4991429;28;20034;-75